sensor_id;sensor_type;location;lat;lon;timestamp;P1;durP1;ratioP1;P2;durP2;ratioP2
21868;SDS011;11099;41.564;23.296;2022-09-13T00:01:40;4.63;;;4.22;;
21868;SDS011;11099;41.564;23.296;2022-09-13T00:04:06;4.80;;;4.50;;
21868;SDS011;11099;41.564;23.296;2022-09-13T00:06:31;6.63;;;4.40;;
21868;SDS011;11099;41.564;23.296;2022-09-13T00:08:57;4.53;;;4.20;;
21868;SDS011;11099;41.564;23.296;2022-09-13T00:11:25;6.68;;;4.32;;
21868;SDS011;11099;41.564;23.296;2022-09-13T00:13:52;4.93;;;4.50;;
21868;SDS011;11099;41.564;23.296;2022-09-13T00:16:19;5.68;;;4.18;;
21868;SDS011;11099;41.564;23.296;2022-09-13T00:18:46;5.10;;;4.70;;
21868;SDS011;11099;41.564;23.296;2022-09-13T00:21:16;5.68;;;5.07;;
21868;SDS011;11099;41.564;23.296;2022-09-13T00:23:47;6.10;;;4.72;;
21868;SDS011;11099;41.564;23.296;2022-09-13T00:26:18;4.97;;;4.68;;
21868;SDS011;11099;41.564;23.296;2022-09-13T00:28:47;4.38;;;4.15;;
21868;SDS011;11099;41.564;23.296;2022-09-13T00:31:15;4.55;;;4.15;;
21868;SDS011;11099;41.564;23.296;2022-09-13T00:33:41;4.60;;;4.20;;
21868;SDS011;11099;41.564;23.296;2022-09-13T00:36:08;4.72;;;4.43;;
21868;SDS011;11099;41.564;23.296;2022-09-13T00:38:36;5.27;;;4.80;;
21868;SDS011;11099;41.564;23.296;2022-09-13T00:41:06;5.50;;;4.40;;
21868;SDS011;11099;41.564;23.296;2022-09-13T00:46:12;5.20;;;4.82;;
21868;SDS011;11099;41.564;23.296;2022-09-13T00:48:44;5.18;;;4.70;;
21868;SDS011;11099;41.564;23.296;2022-09-13T00:51:11;5.10;;;4.60;;
21868;SDS011;11099;41.564;23.296;2022-09-13T00:53:38;5.00;;;4.50;;
21868;SDS011;11099;41.564;23.296;2022-09-13T00:56:08;5.10;;;4.60;;
21868;SDS011;11099;41.564;23.296;2022-09-13T00:58:43;5.00;;;4.60;;
21868;SDS011;11099;41.564;23.296;2022-09-13T01:01:15;8.02;;;4.75;;
21868;SDS011;11099;41.564;23.296;2022-09-13T01:03:42;4.88;;;4.50;;
21868;SDS011;11099;41.564;23.296;2022-09-13T01:06:17;6.15;;;4.80;;
21868;SDS011;11099;41.564;23.296;2022-09-13T01:08:46;5.43;;;4.93;;
21868;SDS011;11099;41.564;23.296;2022-09-13T01:11:24;5.82;;;5.22;;
21868;SDS011;11099;41.564;23.296;2022-09-13T01:14:00;5.45;;;5.05;;
21868;SDS011;11099;41.564;23.296;2022-09-13T01:16:27;5.72;;;5.32;;
21868;SDS011;11099;41.564;23.296;2022-09-13T01:18:52;5.80;;;5.28;;
21868;SDS011;11099;41.564;23.296;2022-09-13T01:25:11;6.53;;;6.03;;
21868;SDS011;11099;41.564;23.296;2022-09-13T01:27:14;5.80;;;5.40;;
21868;SDS011;11099;41.564;23.296;2022-09-13T01:46:55;6.20;;;5.80;;
21868;SDS011;11099;41.564;23.296;2022-09-13T01:50:26;6.55;;;5.90;;
21868;SDS011;11099;41.564;23.296;2022-09-13T01:55:32;5.90;;;5.35;;
21868;SDS011;11099;41.564;23.296;2022-09-13T02:00:35;6.32;;;5.07;;
21868;SDS011;11099;41.564;23.296;2022-09-13T02:03:10;5.43;;;4.93;;
21868;SDS011;11099;41.564;23.296;2022-09-13T02:05:55;5.80;;;5.32;;
21868;SDS011;11099;41.564;23.296;2022-09-13T02:08:32;5.78;;;5.28;;
21868;SDS011;11099;41.564;23.296;2022-09-13T02:11:09;5.90;;;5.15;;
21868;SDS011;11099;41.564;23.296;2022-09-13T02:13:39;5.53;;;4.93;;
21868;SDS011;11099;41.564;23.296;2022-09-13T02:16:32;7.10;;;4.75;;
21868;SDS011;11099;41.564;23.296;2022-09-13T02:19:00;9.85;;;5.13;;
21868;SDS011;11099;41.564;23.296;2022-09-13T02:21:31;6.07;;;5.47;;
21868;SDS011;11099;41.564;23.296;2022-09-13T02:24:07;6.35;;;5.85;;
21868;SDS011;11099;41.564;23.296;2022-09-13T02:26:38;7.70;;;5.53;;
21868;SDS011;11099;41.564;23.296;2022-09-13T02:29:10;7.75;;;5.38;;
21868;SDS011;11099;41.564;23.296;2022-09-13T02:31:59;5.35;;;4.85;;
21868;SDS011;11099;41.564;23.296;2022-09-13T02:34:35;5.95;;;4.88;;
21868;SDS011;11099;41.564;23.296;2022-09-13T02:37:04;5.95;;;5.13;;
21868;SDS011;11099;41.564;23.296;2022-09-13T02:39:35;5.25;;;4.85;;
21868;SDS011;11099;41.564;23.296;2022-09-13T02:42:16;5.00;;;4.60;;
21868;SDS011;11099;41.564;23.296;2022-09-13T02:44:46;5.47;;;4.88;;
21868;SDS011;11099;41.564;23.296;2022-09-13T02:53:03;6.93;;;6.32;;
21868;SDS011;11099;41.564;23.296;2022-09-13T03:01:14;8.30;;;6.63;;
21868;SDS011;11099;41.564;23.296;2022-09-13T03:03:40;6.82;;;6.00;;
21868;SDS011;11099;41.564;23.296;2022-09-13T03:06:05;7.00;;;6.30;;
21868;SDS011;11099;41.564;23.296;2022-09-13T03:08:31;7.47;;;6.75;;
21868;SDS011;11099;41.564;23.296;2022-09-13T03:11:14;6.38;;;5.80;;
21868;SDS011;11099;41.564;23.296;2022-09-13T03:19:31;6.38;;;5.88;;
21868;SDS011;11099;41.564;23.296;2022-09-13T03:22:23;6.53;;;5.82;;
21868;SDS011;11099;41.564;23.296;2022-09-13T03:25:05;6.45;;;5.88;;
21868;SDS011;11099;41.564;23.296;2022-09-13T03:30:13;7.78;;;7.07;;
21868;SDS011;11099;41.564;23.296;2022-09-13T03:38:25;6.60;;;5.88;;
21868;SDS011;11099;41.564;23.296;2022-09-13T03:41:08;6.53;;;6.03;;
21868;SDS011;11099;41.564;23.296;2022-09-13T03:43:42;7.30;;;6.70;;
21868;SDS011;11099;41.564;23.296;2022-09-13T03:46:35;6.72;;;6.22;;
21868;SDS011;11099;41.564;23.296;2022-09-13T03:49:03;7.05;;;6.45;;
21868;SDS011;11099;41.564;23.296;2022-09-13T03:51:31;7.05;;;6.50;;
21868;SDS011;11099;41.564;23.296;2022-09-13T03:53:58;7.20;;;6.60;;
21868;SDS011;11099;41.564;23.296;2022-09-13T03:56:27;7.15;;;6.22;;
21868;SDS011;11099;41.564;23.296;2022-09-13T03:58:53;7.07;;;6.53;;
21868;SDS011;11099;41.564;23.296;2022-09-13T04:01:20;7.63;;;6.93;;
21868;SDS011;11099;41.564;23.296;2022-09-13T04:03:47;8.50;;;7.18;;
21868;SDS011;11099;41.564;23.296;2022-09-13T04:06:13;7.78;;;7.18;;
21868;SDS011;11099;41.564;23.296;2022-09-13T04:08:39;8.65;;;6.60;;
21868;SDS011;11099;41.564;23.296;2022-09-13T04:11:04;6.90;;;6.30;;
21868;SDS011;11099;41.564;23.296;2022-09-13T04:13:30;7.05;;;6.45;;
21868;SDS011;11099;41.564;23.296;2022-09-13T04:15:59;6.60;;;6.10;;
21868;SDS011;11099;41.564;23.296;2022-09-13T04:18:26;6.88;;;6.38;;
21868;SDS011;11099;41.564;23.296;2022-09-13T04:20:53;6.93;;;6.22;;
21868;SDS011;11099;41.564;23.296;2022-09-13T04:23:20;8.00;;;6.35;;
21868;SDS011;11099;41.564;23.296;2022-09-13T04:25:46;6.90;;;6.30;;
21868;SDS011;11099;41.564;23.296;2022-09-13T04:28:11;6.80;;;6.25;;
21868;SDS011;11099;41.564;23.296;2022-09-13T04:30:37;6.88;;;6.35;;
21868;SDS011;11099;41.564;23.296;2022-09-13T04:33:02;7.70;;;5.85;;
21868;SDS011;11099;41.564;23.296;2022-09-13T04:35:28;6.20;;;5.80;;
21868;SDS011;11099;41.564;23.296;2022-09-13T04:37:54;6.75;;;6.13;;
21868;SDS011;11099;41.564;23.296;2022-09-13T04:40:21;6.78;;;6.15;;
21868;SDS011;11099;41.564;23.296;2022-09-13T04:42:47;6.30;;;5.80;;
21868;SDS011;11099;41.564;23.296;2022-09-13T04:45:13;6.63;;;6.13;;
21868;SDS011;11099;41.564;23.296;2022-09-13T04:47:39;7.00;;;6.40;;
21868;SDS011;11099;41.564;23.296;2022-09-13T04:50:04;7.78;;;7.05;;
21868;SDS011;11099;41.564;23.296;2022-09-13T04:52:31;6.43;;;5.93;;
21868;SDS011;11099;41.564;23.296;2022-09-13T04:54:57;8.07;;;6.75;;
21868;SDS011;11099;41.564;23.296;2022-09-13T04:57:25;5.65;;;5.25;;
21868;SDS011;11099;41.564;23.296;2022-09-13T05:02:20;5.07;;;4.63;;
21868;SDS011;11099;41.564;23.296;2022-09-13T05:04:45;5.00;;;4.50;;
21868;SDS011;11099;41.564;23.296;2022-09-13T05:07:11;5.55;;;5.05;;
21868;SDS011;11099;41.564;23.296;2022-09-13T05:09:36;5.68;;;5.20;;
21868;SDS011;11099;41.564;23.296;2022-09-13T05:12:02;6.40;;;4.88;;
21868;SDS011;11099;41.564;23.296;2022-09-13T05:14:28;5.22;;;4.82;;
21868;SDS011;11099;41.564;23.296;2022-09-13T05:16:53;5.63;;;5.20;;
21868;SDS011;11099;41.564;23.296;2022-09-13T05:19:19;5.78;;;5.28;;
21868;SDS011;11099;41.564;23.296;2022-09-13T05:21:45;5.72;;;4.93;;
21868;SDS011;11099;41.564;23.296;2022-09-13T05:24:11;4.78;;;4.38;;
21868;SDS011;11099;41.564;23.296;2022-09-13T05:26:36;8.95;;;5.03;;
21868;SDS011;11099;41.564;23.296;2022-09-13T05:29:02;7.88;;;5.30;;
21868;SDS011;11099;41.564;23.296;2022-09-13T05:31:32;8.63;;;4.68;;
21868;SDS011;11099;41.564;23.296;2022-09-13T05:34:00;4.95;;;4.55;;
21868;SDS011;11099;41.564;23.296;2022-09-13T05:36:29;5.05;;;4.65;;
21868;SDS011;11099;41.564;23.296;2022-09-13T05:38:55;3.60;;;3.30;;
21868;SDS011;11099;41.564;23.296;2022-09-13T05:41:21;5.63;;;4.60;;
21868;SDS011;11099;41.564;23.296;2022-09-13T05:43:46;4.68;;;4.28;;
21868;SDS011;11099;41.564;23.296;2022-09-13T05:46:13;4.65;;;4.35;;
21868;SDS011;11099;41.564;23.296;2022-09-13T05:48:41;5.00;;;4.70;;
21868;SDS011;11099;41.564;23.296;2022-09-13T05:51:08;5.18;;;4.78;;
21868;SDS011;11099;41.564;23.296;2022-09-13T05:53:35;4.77;;;4.17;;
21868;SDS011;11099;41.564;23.296;2022-09-13T05:56:10;7.97;;;5.10;;
21868;SDS011;11099;41.564;23.296;2022-09-13T05:58:37;5.70;;;4.72;;
21868;SDS011;11099;41.564;23.296;2022-09-13T06:01:04;5.22;;;4.65;;
21868;SDS011;11099;41.564;23.296;2022-09-13T06:03:30;4.78;;;4.35;;
21868;SDS011;11099;41.564;23.296;2022-09-13T06:05:56;7.30;;;4.60;;
21868;SDS011;11099;41.564;23.296;2022-09-13T06:08:26;7.82;;;4.63;;
21868;SDS011;11099;41.564;23.296;2022-09-13T06:10:57;6.65;;;4.10;;
21868;SDS011;11099;41.564;23.296;2022-09-13T06:13:24;5.82;;;4.32;;
21868;SDS011;11099;41.564;23.296;2022-09-13T06:15:51;5.95;;;4.43;;
21868;SDS011;11099;41.564;23.296;2022-09-13T06:18:17;4.53;;;4.10;;
21868;SDS011;11099;41.564;23.296;2022-09-13T06:20:43;4.10;;;3.72;;
21868;SDS011;11099;41.564;23.296;2022-09-13T06:23:09;4.50;;;4.13;;
21868;SDS011;11099;41.564;23.296;2022-09-13T06:25:35;3.80;;;3.45;;
21868;SDS011;11099;41.564;23.296;2022-09-13T06:28:02;5.43;;;4.28;;
21868;SDS011;11099;41.564;23.296;2022-09-13T06:30:28;6.35;;;4.32;;
21868;SDS011;11099;41.564;23.296;2022-09-13T06:32:57;4.50;;;4.22;;
21868;SDS011;11099;41.564;23.296;2022-09-13T06:35:22;4.65;;;4.15;;
21868;SDS011;11099;41.564;23.296;2022-09-13T06:37:48;4.82;;;4.10;;
21868;SDS011;11099;41.564;23.296;2022-09-13T06:40:14;6.10;;;5.35;;
21868;SDS011;11099;41.564;23.296;2022-09-13T06:42:40;10.55;;;4.65;;
21868;SDS011;11099;41.564;23.296;2022-09-13T06:45:06;5.63;;;4.05;;
21868;SDS011;11099;41.564;23.296;2022-09-13T06:47:32;6.65;;;4.38;;
21868;SDS011;11099;41.564;23.296;2022-09-13T06:49:58;5.05;;;4.22;;
21868;SDS011;11099;41.564;23.296;2022-09-13T06:52:25;4.47;;;4.07;;
21868;SDS011;11099;41.564;23.296;2022-09-13T06:54:51;5.28;;;4.50;;
21868;SDS011;11099;41.564;23.296;2022-09-13T06:57:17;5.20;;;4.70;;
21868;SDS011;11099;41.564;23.296;2022-09-13T06:59:43;5.72;;;4.78;;
21868;SDS011;11099;41.564;23.296;2022-09-13T07:02:09;4.40;;;4.07;;
21868;SDS011;11099;41.564;23.296;2022-09-13T07:04:35;4.40;;;4.10;;
21868;SDS011;11099;41.564;23.296;2022-09-13T07:07:00;4.47;;;4.15;;
21868;SDS011;11099;41.564;23.296;2022-09-13T07:09:26;5.20;;;4.75;;
21868;SDS011;11099;41.564;23.296;2022-09-13T07:11:52;4.65;;;4.25;;
21868;SDS011;11099;41.564;23.296;2022-09-13T07:14:20;4.07;;;3.80;;
21868;SDS011;11099;41.564;23.296;2022-09-13T07:16:48;3.80;;;3.50;;
21868;SDS011;11099;41.564;23.296;2022-09-13T07:19:18;3.75;;;3.30;;
21868;SDS011;11099;41.564;23.296;2022-09-13T07:21:48;5.00;;;3.13;;
21868;SDS011;11099;41.564;23.296;2022-09-13T07:24:18;4.78;;;2.78;;
21868;SDS011;11099;41.564;23.296;2022-09-13T07:26:45;3.60;;;2.63;;
21868;SDS011;11099;41.564;23.296;2022-09-13T07:29:12;3.05;;;2.85;;
21868;SDS011;11099;41.564;23.296;2022-09-13T07:34:16;5.30;;;2.88;;
21868;SDS011;11099;41.564;23.296;2022-09-13T07:36:43;5.38;;;3.50;;
21868;SDS011;11099;41.564;23.296;2022-09-13T07:39:11;7.97;;;3.25;;
21868;SDS011;11099;41.564;23.296;2022-09-13T07:41:37;3.00;;;2.78;;
21868;SDS011;11099;41.564;23.296;2022-09-13T07:44:03;3.47;;;2.90;;
21868;SDS011;11099;41.564;23.296;2022-09-13T07:46:30;4.13;;;2.55;;
21868;SDS011;11099;41.564;23.296;2022-09-13T07:48:58;4.85;;;2.75;;
21868;SDS011;11099;41.564;23.296;2022-09-13T07:51:25;5.68;;;2.63;;
21868;SDS011;11099;41.564;23.296;2022-09-13T07:53:56;5.60;;;3.08;;
21868;SDS011;11099;41.564;23.296;2022-09-13T07:56:26;3.00;;;2.70;;
21868;SDS011;11099;41.564;23.296;2022-09-13T07:58:53;4.65;;;3.03;;
21868;SDS011;11099;41.564;23.296;2022-09-13T08:01:21;11.65;;;2.45;;
21868;SDS011;11099;41.564;23.296;2022-09-13T08:03:51;5.30;;;2.90;;
21868;SDS011;11099;41.564;23.296;2022-09-13T08:06:19;5.45;;;2.70;;
21868;SDS011;11099;41.564;23.296;2022-09-13T08:08:45;3.70;;;2.50;;
21868;SDS011;11099;41.564;23.296;2022-09-13T08:11:15;3.75;;;2.20;;
21868;SDS011;11099;41.564;23.296;2022-09-13T08:13:43;3.85;;;2.50;;
21868;SDS011;11099;41.564;23.296;2022-09-13T08:16:13;3.47;;;2.60;;
21868;SDS011;11099;41.564;23.296;2022-09-13T08:18:44;3.72;;;2.33;;
21868;SDS011;11099;41.564;23.296;2022-09-13T08:21:13;2.50;;;2.30;;
21868;SDS011;11099;41.564;23.296;2022-09-13T08:23:39;3.17;;;2.63;;
21868;SDS011;11099;41.564;23.296;2022-09-13T08:26:05;2.40;;;2.20;;
21868;SDS011;11099;41.564;23.296;2022-09-13T08:28:32;3.95;;;2.20;;
21868;SDS011;11099;41.564;23.296;2022-09-13T08:31:08;6.38;;;2.30;;
21868;SDS011;11099;41.564;23.296;2022-09-13T08:33:36;3.58;;;2.38;;
21868;SDS011;11099;41.564;23.296;2022-09-13T08:36:02;6.13;;;2.30;;
21868;SDS011;11099;41.564;23.296;2022-09-13T08:38:28;3.28;;;2.08;;
21868;SDS011;11099;41.564;23.296;2022-09-13T08:40:59;2.30;;;2.10;;
21868;SDS011;11099;41.564;23.296;2022-09-13T08:48:53;2.05;;;1.88;;
21868;SDS011;11099;41.564;23.296;2022-09-13T08:54:00;2.60;;;2.17;;
21868;SDS011;11099;41.564;23.296;2022-09-13T08:56:50;2.47;;;2.28;;
21868;SDS011;11099;41.564;23.296;2022-09-13T08:59:32;3.72;;;2.10;;
21868;SDS011;11099;41.564;23.296;2022-09-13T09:05:19;3.58;;;2.03;;
21868;SDS011;11099;41.564;23.296;2022-09-13T09:07:30;3.13;;;1.90;;
21868;SDS011;11099;41.564;23.296;2022-09-13T09:10:06;2.22;;;2.08;;
21868;SDS011;11099;41.564;23.296;2022-09-13T09:15:57;3.78;;;2.28;;
21868;SDS011;11099;41.564;23.296;2022-09-13T09:20:59;10.63;;;1.90;;
21868;SDS011;11099;41.564;23.296;2022-09-13T09:28:49;1.85;;;1.67;;
21868;SDS011;11099;41.564;23.296;2022-09-13T09:37:23;5.18;;;1.90;;
21868;SDS011;11099;41.564;23.296;2022-09-13T09:39:54;2.33;;;1.90;;
21868;SDS011;11099;41.564;23.296;2022-09-13T09:42:27;2.38;;;1.85;;
21868;SDS011;11099;41.564;23.296;2022-09-13T09:44:58;2.20;;;2.00;;
21868;SDS011;11099;41.564;23.296;2022-09-13T09:47:45;3.58;;;1.67;;
21868;SDS011;11099;41.564;23.296;2022-09-13T09:50:17;1.75;;;1.65;;
21868;SDS011;11099;41.564;23.296;2022-09-13T09:53:02;1.52;;;1.42;;
21868;SDS011;11099;41.564;23.296;2022-09-13T09:55:48;3.58;;;1.80;;
21868;SDS011;11099;41.564;23.296;2022-09-13T09:58:17;2.15;;;1.70;;
21868;SDS011;11099;41.564;23.296;2022-09-13T10:01:01;2.20;;;1.90;;
21868;SDS011;11099;41.564;23.296;2022-09-13T10:03:30;2.03;;;1.90;;
21868;SDS011;11099;41.564;23.296;2022-09-13T10:08:34;2.20;;;2.00;;
21868;SDS011;11099;41.564;23.296;2022-09-13T10:11:03;2.47;;;2.10;;
21868;SDS011;11099;41.564;23.296;2022-09-13T10:13:31;1.90;;;1.80;;
21868;SDS011;11099;41.564;23.296;2022-09-13T10:16:01;2.00;;;1.90;;
21868;SDS011;11099;41.564;23.296;2022-09-13T10:18:35;1.77;;;1.60;;
21868;SDS011;11099;41.564;23.296;2022-09-13T10:21:23;3.45;;;1.67;;
21868;SDS011;11099;41.564;23.296;2022-09-13T10:23:49;4.10;;;2.00;;
21868;SDS011;11099;41.564;23.296;2022-09-13T10:26:22;1.65;;;1.55;;
21868;SDS011;11099;41.564;23.296;2022-09-13T10:31:30;1.70;;;1.60;;
21868;SDS011;11099;41.564;23.296;2022-09-13T10:34:06;5.28;;;2.03;;
21868;SDS011;11099;41.564;23.296;2022-09-13T10:36:36;1.73;;;1.60;;
21868;SDS011;11099;41.564;23.296;2022-09-13T10:39:17;2.75;;;1.38;;
21868;SDS011;11099;41.564;23.296;2022-09-13T10:44:27;1.58;;;1.42;;
21868;SDS011;11099;41.564;23.296;2022-09-13T10:47:21;1.70;;;1.60;;
21868;SDS011;11099;41.564;23.296;2022-09-13T10:49:52;2.65;;;1.80;;
21868;SDS011;11099;41.564;23.296;2022-09-13T10:52:32;3.67;;;1.83;;
21868;SDS011;11099;41.564;23.296;2022-09-13T10:57:44;2.38;;;1.60;;
21868;SDS011;11099;41.564;23.296;2022-09-13T11:00:12;3.70;;;1.80;;
21868;SDS011;11099;41.564;23.296;2022-09-13T11:05:34;3.10;;;1.70;;
21868;SDS011;11099;41.564;23.296;2022-09-13T11:21:57;1.40;;;1.30;;
21868;SDS011;11099;41.564;23.296;2022-09-13T11:37:57;1.60;;;1.50;;
21868;SDS011;11099;41.564;23.296;2022-09-13T11:40:33;2.67;;;2.15;;
21868;SDS011;11099;41.564;23.296;2022-09-13T11:55:02;1.65;;;1.55;;
21868;SDS011;11099;41.564;23.296;2022-09-13T12:05:41;1.57;;;1.47;;
21868;SDS011;11099;41.564;23.296;2022-09-13T12:08:20;1.60;;;1.50;;
21868;SDS011;11099;41.564;23.296;2022-09-13T12:13:25;2.45;;;1.45;;
21868;SDS011;11099;41.564;23.296;2022-09-13T12:16:04;1.77;;;1.67;;
21868;SDS011;11099;41.564;23.296;2022-09-13T12:18:46;3.20;;;1.38;;
21868;SDS011;11099;41.564;23.296;2022-09-13T12:21:19;1.70;;;1.52;;
21868;SDS011;11099;41.564;23.296;2022-09-13T12:26:57;2.60;;;1.48;;
21868;SDS011;11099;41.564;23.296;2022-09-13T12:32:14;6.13;;;1.33;;
21868;SDS011;11099;41.564;23.296;2022-09-13T12:34:43;1.52;;;1.40;;
21868;SDS011;11099;41.564;23.296;2022-09-13T12:40:35;1.60;;;1.50;;
21868;SDS011;11099;41.564;23.296;2022-09-13T12:56:58;1.48;;;1.40;;
21868;SDS011;11099;41.564;23.296;2022-09-13T13:05:35;2.03;;;1.37;;
21868;SDS011;11099;41.564;23.296;2022-09-13T13:10:44;2.05;;;1.50;;
21868;SDS011;11099;41.564;23.296;2022-09-13T13:13:35;1.38;;;1.27;;
21868;SDS011;11099;41.564;23.296;2022-09-13T13:19:29;1.50;;;1.40;;
21868;SDS011;11099;41.564;23.296;2022-09-13T13:22:46;1.67;;;1.30;;
21868;SDS011;11099;41.564;23.296;2022-09-13T13:25:24;4.10;;;1.40;;
21868;SDS011;11099;41.564;23.296;2022-09-13T13:28:01;5.28;;;1.27;;
21868;SDS011;11099;41.564;23.296;2022-09-13T13:33:18;2.13;;;1.42;;
21868;SDS011;11099;41.564;23.296;2022-09-13T13:35:45;1.40;;;1.30;;
21868;SDS011;11099;41.564;23.296;2022-09-13T13:38:18;1.48;;;1.38;;
21868;SDS011;11099;41.564;23.296;2022-09-13T13:43:58;1.80;;;1.30;;
21868;SDS011;11099;41.564;23.296;2022-09-13T13:46:27;2.05;;;1.20;;
21868;SDS011;11099;41.564;23.296;2022-09-13T13:48:54;1.58;;;1.38;;
21868;SDS011;11099;41.564;23.296;2022-09-13T13:51:25;2.50;;;1.55;;
21868;SDS011;11099;41.564;23.296;2022-09-13T13:53:57;1.33;;;1.30;;
21868;SDS011;11099;41.564;23.296;2022-09-13T13:56:30;3.15;;;1.08;;
21868;SDS011;11099;41.564;23.296;2022-09-13T14:01:38;2.40;;;1.20;;
21868;SDS011;11099;41.564;23.296;2022-09-13T14:07:08;4.90;;;1.50;;
21868;SDS011;11099;41.564;23.296;2022-09-13T14:09:45;1.52;;;1.42;;
21868;SDS011;11099;41.564;23.296;2022-09-13T14:12:31;1.75;;;1.25;;
21868;SDS011;11099;41.564;23.296;2022-09-13T14:20:55;1.50;;;1.10;;
21868;SDS011;11099;41.564;23.296;2022-09-13T14:23:40;2.40;;;1.10;;
21868;SDS011;11099;41.564;23.296;2022-09-13T14:26:05;1.52;;;1.23;;
21868;SDS011;11099;41.564;23.296;2022-09-13T14:28:31;2.13;;;1.10;;
21868;SDS011;11099;41.564;23.296;2022-09-13T14:30:57;0.98;;;0.98;;
21868;SDS011;11099;41.564;23.296;2022-09-13T14:36:01;1.90;;;1.15;;
21868;SDS011;11099;41.564;23.296;2022-09-13T14:38:28;2.67;;;1.25;;
21868;SDS011;11099;41.564;23.296;2022-09-13T14:41:21;2.05;;;1.20;;
21868;SDS011;11099;41.564;23.296;2022-09-13T14:43:46;3.28;;;1.35;;
21868;SDS011;11099;41.564;23.296;2022-09-13T14:46:24;2.28;;;2.17;;
21868;SDS011;11099;41.564;23.296;2022-09-13T14:48:59;2.42;;;1.23;;
21868;SDS011;11099;41.564;23.296;2022-09-13T14:51:44;3.05;;;1.30;;
21868;SDS011;11099;41.564;23.296;2022-09-13T14:54:16;1.58;;;1.48;;
21868;SDS011;11099;41.564;23.296;2022-09-13T14:56:56;1.10;;;1.10;;
21868;SDS011;11099;41.564;23.296;2022-09-13T14:59:29;2.22;;;1.17;;
21868;SDS011;11099;41.564;23.296;2022-09-13T15:02:04;2.38;;;1.27;;
21868;SDS011;11099;41.564;23.296;2022-09-13T15:04:31;1.30;;;1.20;;
21868;SDS011;11099;41.564;23.296;2022-09-13T15:09:54;1.60;;;1.50;;
21868;SDS011;11099;41.564;23.296;2022-09-13T15:12:23;2.08;;;1.30;;
21868;SDS011;11099;41.564;23.296;2022-09-13T15:18:01;1.35;;;1.33;;
21868;SDS011;11099;41.564;23.296;2022-09-13T15:23:22;1.98;;;1.73;;
21868;SDS011;11099;41.564;23.296;2022-09-13T15:26:01;1.63;;;1.52;;
21868;SDS011;11099;41.564;23.296;2022-09-13T15:28:30;1.85;;;1.55;;
21868;SDS011;11099;41.564;23.296;2022-09-13T15:31:22;4.25;;;1.40;;
21868;SDS011;11099;41.564;23.296;2022-09-13T15:36:36;6.72;;;1.63;;
21868;SDS011;11099;41.564;23.296;2022-09-13T15:41:40;1.75;;;1.60;;
21868;SDS011;11099;41.564;23.296;2022-09-13T15:44:14;2.75;;;1.90;;
21868;SDS011;11099;41.564;23.296;2022-09-13T15:46:45;1.80;;;1.70;;
21868;SDS011;11099;41.564;23.296;2022-09-13T15:49:17;1.83;;;1.70;;
21868;SDS011;11099;41.564;23.296;2022-09-13T15:51:44;1.90;;;1.80;;
21868;SDS011;11099;41.564;23.296;2022-09-13T15:54:11;1.77;;;1.67;;
21868;SDS011;11099;41.564;23.296;2022-09-13T15:56:40;2.92;;;1.60;;
21868;SDS011;11099;41.564;23.296;2022-09-13T15:59:15;2.03;;;1.52;;
21868;SDS011;11099;41.564;23.296;2022-09-13T16:01:42;2.05;;;1.70;;
21868;SDS011;11099;41.564;23.296;2022-09-13T16:04:09;2.38;;;1.73;;
21868;SDS011;11099;41.564;23.296;2022-09-13T16:06:35;2.78;;;1.75;;
21868;SDS011;11099;41.564;23.296;2022-09-13T16:09:06;1.60;;;1.50;;
21868;SDS011;11099;41.564;23.296;2022-09-13T16:11:43;2.05;;;1.85;;
21868;SDS011;11099;41.564;23.296;2022-09-13T16:14:09;3.40;;;1.80;;
21868;SDS011;11099;41.564;23.296;2022-09-13T16:16:35;2.80;;;1.95;;
21868;SDS011;11099;41.564;23.296;2022-09-13T16:19:00;1.70;;;1.60;;
21868;SDS011;11099;41.564;23.296;2022-09-13T16:21:26;2.28;;;2.08;;
21868;SDS011;11099;41.564;23.296;2022-09-13T16:23:53;4.20;;;2.00;;
21868;SDS011;11099;41.564;23.296;2022-09-13T16:26:19;2.53;;;2.10;;
21868;SDS011;11099;41.564;23.296;2022-09-13T16:28:44;2.17;;;1.95;;
21868;SDS011;11099;41.564;23.296;2022-09-13T16:31:10;2.60;;;1.98;;
21868;SDS011;11099;41.564;23.296;2022-09-13T16:33:35;3.70;;;1.85;;
21868;SDS011;11099;41.564;23.296;2022-09-13T16:36:01;5.68;;;1.90;;
21868;SDS011;11099;41.564;23.296;2022-09-13T16:38:27;2.50;;;2.10;;
21868;SDS011;11099;41.564;23.296;2022-09-13T16:40:52;2.40;;;2.20;;
21868;SDS011;11099;41.564;23.296;2022-09-13T16:43:18;2.10;;;2.00;;
21868;SDS011;11099;41.564;23.296;2022-09-13T16:45:43;6.75;;;1.80;;
21868;SDS011;11099;41.564;23.296;2022-09-13T16:48:09;2.33;;;1.95;;
21868;SDS011;11099;41.564;23.296;2022-09-13T16:50:38;2.05;;;1.95;;
21868;SDS011;11099;41.564;23.296;2022-09-13T16:53:04;2.05;;;1.85;;
21868;SDS011;11099;41.564;23.296;2022-09-13T16:55:29;3.97;;;2.08;;
21868;SDS011;11099;41.564;23.296;2022-09-13T16:57:55;1.73;;;1.63;;
21868;SDS011;11099;41.564;23.296;2022-09-13T17:00:21;2.38;;;1.80;;
21868;SDS011;11099;41.564;23.296;2022-09-13T17:02:48;2.67;;;1.67;;
21868;SDS011;11099;41.564;23.296;2022-09-13T17:05:14;2.65;;;1.70;;
21868;SDS011;11099;41.564;23.296;2022-09-13T17:07:39;1.77;;;1.67;;
21868;SDS011;11099;41.564;23.296;2022-09-13T17:10:06;1.75;;;1.65;;
21868;SDS011;11099;41.564;23.296;2022-09-13T17:12:32;4.40;;;2.00;;
21868;SDS011;11099;41.564;23.296;2022-09-13T17:14:58;1.58;;;1.48;;
21868;SDS011;11099;41.564;23.296;2022-09-13T17:17:24;3.90;;;1.85;;
21868;SDS011;11099;41.564;23.296;2022-09-13T17:19:50;3.08;;;1.90;;
21868;SDS011;11099;41.564;23.296;2022-09-13T17:22:16;3.45;;;2.08;;
21868;SDS011;11099;41.564;23.296;2022-09-13T17:24:42;2.10;;;1.77;;
21868;SDS011;11099;41.564;23.296;2022-09-13T17:27:09;2.70;;;2.20;;
21868;SDS011;11099;41.564;23.296;2022-09-13T17:29:35;3.35;;;1.77;;
21868;SDS011;11099;41.564;23.296;2022-09-13T17:32:01;2.47;;;1.83;;
21868;SDS011;11099;41.564;23.296;2022-09-13T17:34:28;2.17;;;2.00;;
21868;SDS011;11099;41.564;23.296;2022-09-13T17:36:56;3.90;;;1.75;;
21868;SDS011;11099;41.564;23.296;2022-09-13T17:39:22;2.05;;;1.70;;
21868;SDS011;11099;41.564;23.296;2022-09-13T17:41:47;3.58;;;2.00;;
21868;SDS011;11099;41.564;23.296;2022-09-13T17:44:13;4.03;;;2.30;;
21868;SDS011;11099;41.564;23.296;2022-09-13T17:46:40;1.92;;;1.80;;
21868;SDS011;11099;41.564;23.296;2022-09-13T17:49:05;2.05;;;1.95;;
21868;SDS011;11099;41.564;23.296;2022-09-13T17:51:31;3.75;;;2.05;;
21868;SDS011;11099;41.564;23.296;2022-09-13T17:53:58;2.97;;;1.83;;
21868;SDS011;11099;41.564;23.296;2022-09-13T17:56:27;2.20;;;1.90;;
21868;SDS011;11099;41.564;23.296;2022-09-13T17:59:13;2.00;;;1.90;;
21868;SDS011;11099;41.564;23.296;2022-09-13T18:01:48;4.05;;;2.20;;
21868;SDS011;11099;41.564;23.296;2022-09-13T18:04:19;3.15;;;2.15;;
21868;SDS011;11099;41.564;23.296;2022-09-13T18:06:46;3.38;;;2.05;;
21868;SDS011;11099;41.564;23.296;2022-09-13T18:09:12;3.15;;;2.00;;
21868;SDS011;11099;41.564;23.296;2022-09-13T18:11:39;2.40;;;2.20;;
21868;SDS011;11099;41.564;23.296;2022-09-13T18:14:06;3.45;;;2.03;;
21868;SDS011;11099;41.564;23.296;2022-09-13T18:16:35;3.55;;;2.45;;
21868;SDS011;11099;41.564;23.296;2022-09-13T18:19:01;3.88;;;2.28;;
21868;SDS011;11099;41.564;23.296;2022-09-13T18:21:26;3.40;;;2.00;;
21868;SDS011;11099;41.564;23.296;2022-09-13T18:23:54;3.70;;;2.47;;
21868;SDS011;11099;41.564;23.296;2022-09-13T18:26:26;3.05;;;2.22;;
21868;SDS011;11099;41.564;23.296;2022-09-13T18:28:53;3.08;;;2.13;;
21868;SDS011;11099;41.564;23.296;2022-09-13T18:31:20;2.22;;;2.05;;